sensor_id;sensor_type;location;lat;lon;timestamp;P1;durP1;ratioP1;P2;durP2;ratioP2
17079;SDS011;8655;57.106;-2.088;2022-11-15T00:01:35;11.70;;;7.23;;
17079;SDS011;8655;57.106;-2.088;2022-11-15T00:04:02;9.63;;;6.97;;
17079;SDS011;8655;57.106;-2.088;2022-11-15T00:06:29;8.93;;;7.10;;
17079;SDS011;8655;57.106;-2.088;2022-11-15T00:08:55;9.47;;;7.43;;
17079;SDS011;8655;57.106;-2.088;2022-11-15T00:11:23;9.27;;;6.80;;
17079;SDS011;8655;57.106;-2.088;2022-11-15T00:13:48;11.77;;;7.60;;
17079;SDS011;8655;57.106;-2.088;2022-11-15T00:16:14;9.97;;;8.07;;
17079;SDS011;8655;57.106;-2.088;2022-11-15T00:18:40;11.90;;;7.57;;
17079;SDS011;8655;57.106;-2.088;2022-11-15T00:21:07;14.03;;;8.27;;
17079;SDS011;8655;57.106;-2.088;2022-11-15T00:23:35;9.50;;;7.33;;
17079;SDS011;8655;57.106;-2.088;2022-11-15T00:26:01;11.77;;;7.93;;
17079;SDS011;8655;57.106;-2.088;2022-11-15T00:28:27;10.20;;;7.27;;
17079;SDS011;8655;57.106;-2.088;2022-11-15T00:30:52;12.07;;;8.00;;
17079;SDS011;8655;57.106;-2.088;2022-11-15T00:33:18;10.97;;;7.63;;
17079;SDS011;8655;57.106;-2.088;2022-11-15T00:35:44;11.57;;;7.90;;
17079;SDS011;8655;57.106;-2.088;2022-11-15T00:38:10;10.53;;;7.80;;
17079;SDS011;8655;57.106;-2.088;2022-11-15T00:40:35;11.60;;;7.97;;
17079;SDS011;8655;57.106;-2.088;2022-11-15T00:43:01;10.20;;;8.00;;
17079;SDS011;8655;57.106;-2.088;2022-11-15T00:45:27;10.53;;;7.63;;
17079;SDS011;8655;57.106;-2.088;2022-11-15T00:47:52;10.50;;;7.90;;
17079;SDS011;8655;57.106;-2.088;2022-11-15T00:50:18;11.40;;;8.20;;
17079;SDS011;8655;57.106;-2.088;2022-11-15T00:52:44;11.23;;;8.20;;
17079;SDS011;8655;57.106;-2.088;2022-11-15T00:55:13;13.17;;;8.77;;
17079;SDS011;8655;57.106;-2.088;2022-11-15T00:57:43;11.73;;;8.48;;
17079;SDS011;8655;57.106;-2.088;2022-11-15T01:00:09;14.27;;;8.73;;
17079;SDS011;8655;57.106;-2.088;2022-11-15T01:02:36;13.20;;;8.63;;
17079;SDS011;8655;57.106;-2.088;2022-11-15T01:05:01;10.10;;;8.27;;
17079;SDS011;8655;57.106;-2.088;2022-11-15T01:07:27;12.17;;;9.10;;
17079;SDS011;8655;57.106;-2.088;2022-11-15T01:09:53;12.40;;;8.33;;
17079;SDS011;8655;57.106;-2.088;2022-11-15T01:12:18;11.90;;;8.23;;
17079;SDS011;8655;57.106;-2.088;2022-11-15T01:14:44;12.30;;;8.77;;
17079;SDS011;8655;57.106;-2.088;2022-11-15T01:17:10;11.13;;;8.57;;
17079;SDS011;8655;57.106;-2.088;2022-11-15T01:19:35;10.73;;;8.23;;
17079;SDS011;8655;57.106;-2.088;2022-11-15T01:22:01;11.67;;;8.30;;
17079;SDS011;8655;57.106;-2.088;2022-11-15T01:24:27;12.97;;;8.50;;
17079;SDS011;8655;57.106;-2.088;2022-11-15T01:26:52;12.77;;;8.67;;
17079;SDS011;8655;57.106;-2.088;2022-11-15T01:29:19;12.80;;;8.93;;
17079;SDS011;8655;57.106;-2.088;2022-11-15T01:31:45;11.50;;;8.57;;
17079;SDS011;8655;57.106;-2.088;2022-11-15T01:34:11;12.17;;;9.13;;
17079;SDS011;8655;57.106;-2.088;2022-11-15T01:36:37;12.43;;;9.00;;
17079;SDS011;8655;57.106;-2.088;2022-11-15T01:39:03;12.57;;;8.87;;
17079;SDS011;8655;57.106;-2.088;2022-11-15T01:41:30;10.87;;;8.97;;
17079;SDS011;8655;57.106;-2.088;2022-11-15T01:44:31;12.60;;;8.37;;
17079;SDS011;8655;57.106;-2.088;2022-11-15T01:46:55;12.10;;;8.30;;
17079;SDS011;8655;57.106;-2.088;2022-11-15T01:49:22;12.97;;;9.30;;
17079;SDS011;8655;57.106;-2.088;2022-11-15T01:51:49;11.68;;;8.55;;
17079;SDS011;8655;57.106;-2.088;2022-11-15T01:54:16;11.40;;;8.63;;
17079;SDS011;8655;57.106;-2.088;2022-11-15T01:56:47;12.50;;;8.60;;
17079;SDS011;8655;57.106;-2.088;2022-11-15T01:59:22;12.30;;;8.67;;
17079;SDS011;8655;57.106;-2.088;2022-11-15T02:01:48;12.73;;;9.13;;
17079;SDS011;8655;57.106;-2.088;2022-11-15T02:04:32;12.53;;;8.93;;
17079;SDS011;8655;57.106;-2.088;2022-11-15T02:07:03;12.73;;;8.60;;
17079;SDS011;8655;57.106;-2.088;2022-11-15T02:09:30;13.97;;;8.87;;
17079;SDS011;8655;57.106;-2.088;2022-11-15T02:11:56;11.77;;;8.23;;
17079;SDS011;8655;57.106;-2.088;2022-11-15T02:14:22;11.40;;;8.70;;
17079;SDS011;8655;57.106;-2.088;2022-11-15T02:17:35;13.60;;;9.20;;
17079;SDS011;8655;57.106;-2.088;2022-11-15T02:22:23;11.07;;;8.50;;
17079;SDS011;8655;57.106;-2.088;2022-11-15T02:25:17;12.33;;;8.97;;
17079;SDS011;8655;57.106;-2.088;2022-11-15T02:30:42;13.77;;;9.10;;
17079;SDS011;8655;57.106;-2.088;2022-11-15T02:36:01;15.13;;;9.57;;
17079;SDS011;8655;57.106;-2.088;2022-11-15T02:41:17;11.23;;;8.43;;
17079;SDS011;8655;57.106;-2.088;2022-11-15T02:43:53;13.83;;;9.43;;
17079;SDS011;8655;57.106;-2.088;2022-11-15T02:46:28;15.03;;;9.00;;
17079;SDS011;8655;57.106;-2.088;2022-11-15T02:49:24;13.40;;;9.50;;
17079;SDS011;8655;57.106;-2.088;2022-11-15T02:51:53;13.10;;;8.77;;
17079;SDS011;8655;57.106;-2.088;2022-11-15T02:54:21;13.63;;;9.10;;
17079;SDS011;8655;57.106;-2.088;2022-11-15T02:56:49;13.10;;;9.10;;
17079;SDS011;8655;57.106;-2.088;2022-11-15T03:07:35;14.77;;;9.03;;
17079;SDS011;8655;57.106;-2.088;2022-11-15T03:10:06;16.67;;;9.60;;
17079;SDS011;8655;57.106;-2.088;2022-11-15T03:12:48;12.87;;;8.77;;
17079;SDS011;8655;57.106;-2.088;2022-11-15T03:15:22;11.07;;;8.47;;
17079;SDS011;8655;57.106;-2.088;2022-11-15T03:18:00;13.77;;;8.47;;
17079;SDS011;8655;57.106;-2.088;2022-11-15T03:20:32;11.63;;;8.97;;
17079;SDS011;8655;57.106;-2.088;2022-11-15T03:23:17;13.53;;;8.50;;
17079;SDS011;8655;57.106;-2.088;2022-11-15T03:25:44;11.73;;;8.33;;
17079;SDS011;8655;57.106;-2.088;2022-11-15T03:28:15;14.30;;;8.90;;
17079;SDS011;8655;57.106;-2.088;2022-11-15T03:30:45;13.07;;;8.83;;
17079;SDS011;8655;57.106;-2.088;2022-11-15T03:33:12;14.00;;;9.10;;
17079;SDS011;8655;57.106;-2.088;2022-11-15T03:35:40;14.47;;;8.97;;
17079;SDS011;8655;57.106;-2.088;2022-11-15T03:38:42;14.83;;;8.57;;
17079;SDS011;8655;57.106;-2.088;2022-11-15T03:41:06;13.33;;;8.27;;
17079;SDS011;8655;57.106;-2.088;2022-11-15T03:43:47;13.53;;;8.60;;
17079;SDS011;8655;57.106;-2.088;2022-11-15T03:46:34;12.47;;;8.23;;
17079;SDS011;8655;57.106;-2.088;2022-11-15T03:49:14;14.33;;;8.40;;
17079;SDS011;8655;57.106;-2.088;2022-11-15T03:51:43;13.37;;;8.80;;
17079;SDS011;8655;57.106;-2.088;2022-11-15T03:54:11;12.83;;;8.20;;
17079;SDS011;8655;57.106;-2.088;2022-11-15T03:56:37;11.37;;;8.23;;
17079;SDS011;8655;57.106;-2.088;2022-11-15T03:59:03;14.20;;;8.73;;
17079;SDS011;8655;57.106;-2.088;2022-11-15T04:01:28;12.67;;;8.23;;
17079;SDS011;8655;57.106;-2.088;2022-11-15T04:03:54;13.60;;;7.90;;
17079;SDS011;8655;57.106;-2.088;2022-11-15T04:06:20;14.57;;;8.23;;
17079;SDS011;8655;57.106;-2.088;2022-11-15T04:08:45;13.77;;;8.03;;
17079;SDS011;8655;57.106;-2.088;2022-11-15T04:11:11;10.90;;;7.60;;
17079;SDS011;8655;57.106;-2.088;2022-11-15T04:13:37;11.77;;;7.90;;
17079;SDS011;8655;57.106;-2.088;2022-11-15T04:16:02;13.63;;;8.43;;
17079;SDS011;8655;57.106;-2.088;2022-11-15T04:18:28;13.60;;;8.37;;
17079;SDS011;8655;57.106;-2.088;2022-11-15T04:20:54;11.67;;;8.17;;
17079;SDS011;8655;57.106;-2.088;2022-11-15T04:23:38;11.63;;;7.97;;
17079;SDS011;8655;57.106;-2.088;2022-11-15T04:26:32;15.87;;;8.63;;
17079;SDS011;8655;57.106;-2.088;2022-11-15T04:28:58;11.90;;;8.63;;
17079;SDS011;8655;57.106;-2.088;2022-11-15T04:31:42;12.57;;;8.20;;
17079;SDS011;8655;57.106;-2.088;2022-11-15T04:34:08;13.17;;;7.90;;
17079;SDS011;8655;57.106;-2.088;2022-11-15T04:36:33;12.52;;;8.02;;
17079;SDS011;8655;57.106;-2.088;2022-11-15T04:39:18;10.65;;;6.95;;
17079;SDS011;8655;57.106;-2.088;2022-11-15T04:41:43;11.63;;;7.60;;
17079;SDS011;8655;57.106;-2.088;2022-11-15T04:44:09;12.43;;;7.75;;
17079;SDS011;8655;57.106;-2.088;2022-11-15T04:46:35;14.63;;;8.20;;
17079;SDS011;8655;57.106;-2.088;2022-11-15T04:49:00;12.50;;;8.73;;
17079;SDS011;8655;57.106;-2.088;2022-11-15T04:51:26;13.60;;;7.97;;
17079;SDS011;8655;57.106;-2.088;2022-11-15T04:53:52;14.30;;;8.70;;
17079;SDS011;8655;57.106;-2.088;2022-11-15T04:56:17;12.03;;;8.27;;
17079;SDS011;8655;57.106;-2.088;2022-11-15T04:58:43;13.38;;;7.85;;
17079;SDS011;8655;57.106;-2.088;2022-11-15T05:01:09;12.68;;;7.80;;
17079;SDS011;8655;57.106;-2.088;2022-11-15T05:03:37;14.60;;;8.67;;
17079;SDS011;8655;57.106;-2.088;2022-11-15T05:06:21;14.50;;;7.93;;
17079;SDS011;8655;57.106;-2.088;2022-11-15T05:08:47;10.53;;;7.37;;
17079;SDS011;8655;57.106;-2.088;2022-11-15T05:11:13;13.13;;;8.30;;
17079;SDS011;8655;57.106;-2.088;2022-11-15T05:13:38;12.57;;;7.73;;
17079;SDS011;8655;57.106;-2.088;2022-11-15T05:16:04;14.37;;;8.73;;
17079;SDS011;8655;57.106;-2.088;2022-11-15T05:18:30;12.50;;;7.70;;
17079;SDS011;8655;57.106;-2.088;2022-11-15T05:20:55;13.50;;;7.53;;
17079;SDS011;8655;57.106;-2.088;2022-11-15T05:23:21;15.67;;;8.43;;
17079;SDS011;8655;57.106;-2.088;2022-11-15T05:25:47;13.73;;;8.47;;
17079;SDS011;8655;57.106;-2.088;2022-11-15T05:28:12;11.57;;;8.40;;
17079;SDS011;8655;57.106;-2.088;2022-11-15T05:30:38;12.57;;;8.23;;
17079;SDS011;8655;57.106;-2.088;2022-11-15T05:33:04;11.53;;;8.53;;
17079;SDS011;8655;57.106;-2.088;2022-11-15T05:35:31;15.23;;;8.50;;
17079;SDS011;8655;57.106;-2.088;2022-11-15T05:38:03;13.47;;;8.23;;
17079;SDS011;8655;57.106;-2.088;2022-11-15T05:40:29;11.87;;;8.40;;
17079;SDS011;8655;57.106;-2.088;2022-11-15T05:42:56;12.83;;;9.13;;
17079;SDS011;8655;57.106;-2.088;2022-11-15T05:45:22;13.93;;;8.73;;
17079;SDS011;8655;57.106;-2.088;2022-11-15T05:47:48;10.97;;;8.13;;
17079;SDS011;8655;57.106;-2.088;2022-11-15T05:50:15;16.50;;;9.30;;
17079;SDS011;8655;57.106;-2.088;2022-11-15T05:52:43;13.00;;;8.57;;
17079;SDS011;8655;57.106;-2.088;2022-11-15T05:55:10;16.93;;;8.80;;
17079;SDS011;8655;57.106;-2.088;2022-11-15T05:57:36;15.43;;;9.10;;
17079;SDS011;8655;57.106;-2.088;2022-11-15T06:00:03;14.00;;;9.77;;
17079;SDS011;8655;57.106;-2.088;2022-11-15T06:02:29;12.17;;;8.73;;
17079;SDS011;8655;57.106;-2.088;2022-11-15T06:04:55;15.50;;;9.03;;
17079;SDS011;8655;57.106;-2.088;2022-11-15T06:07:21;12.97;;;8.47;;
17079;SDS011;8655;57.106;-2.088;2022-11-15T06:09:46;13.77;;;9.00;;
17079;SDS011;8655;57.106;-2.088;2022-11-15T06:12:12;16.90;;;9.43;;
17079;SDS011;8655;57.106;-2.088;2022-11-15T06:14:38;14.40;;;9.53;;
17079;SDS011;8655;57.106;-2.088;2022-11-15T06:17:04;14.80;;;9.07;;
17079;SDS011;8655;57.106;-2.088;2022-11-15T06:19:29;17.00;;;10.37;;
17079;SDS011;8655;57.106;-2.088;2022-11-15T06:21:58;16.87;;;10.60;;
17079;SDS011;8655;57.106;-2.088;2022-11-15T06:24:24;13.80;;;9.70;;
17079;SDS011;8655;57.106;-2.088;2022-11-15T06:26:50;14.47;;;9.00;;
17079;SDS011;8655;57.106;-2.088;2022-11-15T06:29:16;14.30;;;9.70;;
17079;SDS011;8655;57.106;-2.088;2022-11-15T06:31:41;17.17;;;11.20;;
17079;SDS011;8655;57.106;-2.088;2022-11-15T06:34:07;16.20;;;9.80;;
17079;SDS011;8655;57.106;-2.088;2022-11-15T06:36:35;14.63;;;10.17;;
17079;SDS011;8655;57.106;-2.088;2022-11-15T06:39:04;15.37;;;9.90;;
17079;SDS011;8655;57.106;-2.088;2022-11-15T06:41:33;16.03;;;10.60;;
17079;SDS011;8655;57.106;-2.088;2022-11-15T06:43:59;16.60;;;10.60;;
17079;SDS011;8655;57.106;-2.088;2022-11-15T06:46:25;16.83;;;10.33;;
17079;SDS011;8655;57.106;-2.088;2022-11-15T06:48:51;14.70;;;9.77;;
17079;SDS011;8655;57.106;-2.088;2022-11-15T06:51:17;14.50;;;10.80;;
17079;SDS011;8655;57.106;-2.088;2022-11-15T06:53:43;19.43;;;10.43;;
17079;SDS011;8655;57.106;-2.088;2022-11-15T06:56:09;17.77;;;10.70;;
17079;SDS011;8655;57.106;-2.088;2022-11-15T06:58:35;19.00;;;11.13;;
17079;SDS011;8655;57.106;-2.088;2022-11-15T07:01:05;16.87;;;10.73;;
17079;SDS011;8655;57.106;-2.088;2022-11-15T07:03:35;14.87;;;10.27;;
17079;SDS011;8655;57.106;-2.088;2022-11-15T07:06:02;15.70;;;10.93;;
17079;SDS011;8655;57.106;-2.088;2022-11-15T07:08:28;18.00;;;10.73;;
17079;SDS011;8655;57.106;-2.088;2022-11-15T07:10:57;16.63;;;9.93;;
17079;SDS011;8655;57.106;-2.088;2022-11-15T07:13:25;17.40;;;10.40;;
17079;SDS011;8655;57.106;-2.088;2022-11-15T07:15:51;16.93;;;10.23;;
17079;SDS011;8655;57.106;-2.088;2022-11-15T07:18:17;19.07;;;10.47;;
17079;SDS011;8655;57.106;-2.088;2022-11-15T07:20:43;14.63;;;9.63;;
17079;SDS011;8655;57.106;-2.088;2022-11-15T07:23:08;16.60;;;9.77;;
17079;SDS011;8655;57.106;-2.088;2022-11-15T07:25:34;17.17;;;11.07;;
17079;SDS011;8655;57.106;-2.088;2022-11-15T07:28:00;19.27;;;10.30;;
17079;SDS011;8655;57.106;-2.088;2022-11-15T07:30:26;15.60;;;9.43;;
17079;SDS011;8655;57.106;-2.088;2022-11-15T07:32:53;15.97;;;9.47;;
17079;SDS011;8655;57.106;-2.088;2022-11-15T07:35:19;17.83;;;9.40;;
17079;SDS011;8655;57.106;-2.088;2022-11-15T07:37:52;16.83;;;9.77;;
17079;SDS011;8655;57.106;-2.088;2022-11-15T07:40:22;15.13;;;9.30;;
17079;SDS011;8655;57.106;-2.088;2022-11-15T07:42:48;14.87;;;9.20;;
17079;SDS011;8655;57.106;-2.088;2022-11-15T07:45:20;15.23;;;9.23;;
17079;SDS011;8655;57.106;-2.088;2022-11-15T07:47:51;15.77;;;9.40;;
17079;SDS011;8655;57.106;-2.088;2022-11-15T07:50:17;13.90;;;9.17;;
17079;SDS011;8655;57.106;-2.088;2022-11-15T07:52:44;16.57;;;9.37;;
17079;SDS011;8655;57.106;-2.088;2022-11-15T07:55:10;16.73;;;9.40;;
17079;SDS011;8655;57.106;-2.088;2022-11-15T07:57:36;14.17;;;9.03;;
17079;SDS011;8655;57.106;-2.088;2022-11-15T08:00:03;17.73;;;9.38;;
17079;SDS011;8655;57.106;-2.088;2022-11-15T08:02:30;16.53;;;9.77;;
17079;SDS011;8655;57.106;-2.088;2022-11-15T08:04:56;18.02;;;9.55;;
17079;SDS011;8655;57.106;-2.088;2022-11-15T08:07:22;15.77;;;8.63;;
17079;SDS011;8655;57.106;-2.088;2022-11-15T08:09:47;16.02;;;9.30;;
17079;SDS011;8655;57.106;-2.088;2022-11-15T08:12:13;15.90;;;9.17;;
17079;SDS011;8655;57.106;-2.088;2022-11-15T08:14:39;16.90;;;9.43;;
17079;SDS011;8655;57.106;-2.088;2022-11-15T08:17:05;18.33;;;9.63;;
17079;SDS011;8655;57.106;-2.088;2022-11-15T08:19:31;15.57;;;8.40;;
17079;SDS011;8655;57.106;-2.088;2022-11-15T08:21:56;15.35;;;8.85;;
17079;SDS011;8655;57.106;-2.088;2022-11-15T08:24:23;17.67;;;9.17;;
17079;SDS011;8655;57.106;-2.088;2022-11-15T08:26:48;17.23;;;9.23;;
17079;SDS011;8655;57.106;-2.088;2022-11-15T08:29:14;17.90;;;9.57;;
17079;SDS011;8655;57.106;-2.088;2022-11-15T08:31:40;20.27;;;9.70;;
17079;SDS011;8655;57.106;-2.088;2022-11-15T08:34:05;18.93;;;9.07;;
17079;SDS011;8655;57.106;-2.088;2022-11-15T08:36:31;17.70;;;9.80;;
17079;SDS011;8655;57.106;-2.088;2022-11-15T08:38:57;17.50;;;9.27;;
17079;SDS011;8655;57.106;-2.088;2022-11-15T08:41:41;13.73;;;9.13;;
17079;SDS011;8655;57.106;-2.088;2022-11-15T08:44:07;16.73;;;9.53;;
17079;SDS011;8655;57.106;-2.088;2022-11-15T08:46:32;14.40;;;8.90;;
17079;SDS011;8655;57.106;-2.088;2022-11-15T08:48:58;18.73;;;9.63;;
17079;SDS011;8655;57.106;-2.088;2022-11-15T08:51:24;18.93;;;9.67;;
17079;SDS011;8655;57.106;-2.088;2022-11-15T08:53:49;17.80;;;9.63;;
17079;SDS011;8655;57.106;-2.088;2022-11-15T08:56:15;15.60;;;9.40;;
17079;SDS011;8655;57.106;-2.088;2022-11-15T08:58:40;16.87;;;9.20;;
17079;SDS011;8655;57.106;-2.088;2022-11-15T09:01:13;16.17;;;10.27;;
17079;SDS011;8655;57.106;-2.088;2022-11-15T09:03:41;21.37;;;10.60;;
17079;SDS011;8655;57.106;-2.088;2022-11-15T09:06:07;16.77;;;9.43;;
17079;SDS011;8655;57.106;-2.088;2022-11-15T09:08:34;18.77;;;9.57;;
17079;SDS011;8655;57.106;-2.088;2022-11-15T09:11:02;17.90;;;9.37;;
17079;SDS011;8655;57.106;-2.088;2022-11-15T09:13:32;15.87;;;9.27;;
17079;SDS011;8655;57.106;-2.088;2022-11-15T09:15:59;19.67;;;9.43;;
17079;SDS011;8655;57.106;-2.088;2022-11-15T09:18:25;15.33;;;9.17;;
17079;SDS011;8655;57.106;-2.088;2022-11-15T09:20:54;17.50;;;9.40;;
17079;SDS011;8655;57.106;-2.088;2022-11-15T09:23:24;17.27;;;9.57;;
17079;SDS011;8655;57.106;-2.088;2022-11-15T09:25:51;16.13;;;9.10;;
17079;SDS011;8655;57.106;-2.088;2022-11-15T09:28:18;18.57;;;9.73;;
17079;SDS011;8655;57.106;-2.088;2022-11-15T09:30:43;15.63;;;8.67;;
17079;SDS011;8655;57.106;-2.088;2022-11-15T09:33:10;19.57;;;8.97;;
17079;SDS011;8655;57.106;-2.088;2022-11-15T09:35:36;16.23;;;8.87;;
17079;SDS011;8655;57.106;-2.088;2022-11-15T09:38:02;15.77;;;8.80;;
17079;SDS011;8655;57.106;-2.088;2022-11-15T09:40:29;18.83;;;9.40;;
17079;SDS011;8655;57.106;-2.088;2022-11-15T09:45:36;17.00;;;8.80;;
17079;SDS011;8655;57.106;-2.088;2022-11-15T09:50:44;17.73;;;9.10;;
17079;SDS011;8655;57.106;-2.088;2022-11-15T09:53:14;15.10;;;8.63;;
17079;SDS011;8655;57.106;-2.088;2022-11-15T09:56:12;16.50;;;9.17;;
17079;SDS011;8655;57.106;-2.088;2022-11-15T10:01:21;14.67;;;8.77;;
17079;SDS011;8655;57.106;-2.088;2022-11-15T10:04:01;16.73;;;9.30;;
17079;SDS011;8655;57.106;-2.088;2022-11-15T10:06:26;17.30;;;9.23;;
17079;SDS011;8655;57.106;-2.088;2022-11-15T10:09:04;16.93;;;9.07;;
17079;SDS011;8655;57.106;-2.088;2022-11-15T10:11:37;17.13;;;8.67;;
17079;SDS011;8655;57.106;-2.088;2022-11-15T10:14:18;17.03;;;8.83;;
17079;SDS011;8655;57.106;-2.088;2022-11-15T10:22:56;16.23;;;8.83;;
17079;SDS011;8655;57.106;-2.088;2022-11-15T10:30:23;15.53;;;8.83;;
17079;SDS011;8655;57.106;-2.088;2022-11-15T10:32:55;18.23;;;9.20;;
17079;SDS011;8655;57.106;-2.088;2022-11-15T10:35:28;14.37;;;9.00;;
17079;SDS011;8655;57.106;-2.088;2022-11-15T10:38:07;15.30;;;9.40;;
17079;SDS011;8655;57.106;-2.088;2022-11-15T10:40:35;16.50;;;8.93;;
17079;SDS011;8655;57.106;-2.088;2022-11-15T10:43:13;14.93;;;8.77;;
17079;SDS011;8655;57.106;-2.088;2022-11-15T10:45:39;18.20;;;9.33;;
17079;SDS011;8655;57.106;-2.088;2022-11-15T10:50:36;18.43;;;9.20;;
17079;SDS011;8655;57.106;-2.088;2022-11-15T10:53:03;15.03;;;8.73;;
17079;SDS011;8655;57.106;-2.088;2022-11-15T10:55:30;16.97;;;8.80;;
17079;SDS011;8655;57.106;-2.088;2022-11-15T10:58:19;15.70;;;8.53;;
17079;SDS011;8655;57.106;-2.088;2022-11-15T11:00:46;17.47;;;9.10;;
17079;SDS011;8655;57.106;-2.088;2022-11-15T11:06:45;16.67;;;9.13;;
17079;SDS011;8655;57.106;-2.088;2022-11-15T11:09:26;15.60;;;9.00;;
17079;SDS011;8655;57.106;-2.088;2022-11-15T11:12:02;15.30;;;9.03;;
17079;SDS011;8655;57.106;-2.088;2022-11-15T11:22:34;13.43;;;8.43;;
17079;SDS011;8655;57.106;-2.088;2022-11-15T11:25:24;16.80;;;9.43;;
17079;SDS011;8655;57.106;-2.088;2022-11-15T11:30:48;17.83;;;8.80;;
17079;SDS011;8655;57.106;-2.088;2022-11-15T11:33:20;16.43;;;9.03;;
17079;SDS011;8655;57.106;-2.088;2022-11-15T11:35:56;15.10;;;8.57;;
17079;SDS011;8655;57.106;-2.088;2022-11-15T11:41:59;15.43;;;9.00;;
17079;SDS011;8655;57.106;-2.088;2022-11-15T11:44:39;14.87;;;7.93;;
17079;SDS011;8655;57.106;-2.088;2022-11-15T11:47:20;16.67;;;7.50;;
17079;SDS011;8655;57.106;-2.088;2022-11-15T11:49:50;15.40;;;8.10;;
17079;SDS011;8655;57.106;-2.088;2022-11-15T11:52:24;16.03;;;8.03;;
17079;SDS011;8655;57.106;-2.088;2022-11-15T11:57:51;11.50;;;7.37;;
17079;SDS011;8655;57.106;-2.088;2022-11-15T12:00:38;17.07;;;8.13;;
17079;SDS011;8655;57.106;-2.088;2022-11-15T12:03:10;13.37;;;6.77;;
17079;SDS011;8655;57.106;-2.088;2022-11-15T12:05:54;11.87;;;6.90;;
17079;SDS011;8655;57.106;-2.088;2022-11-15T12:08:31;16.00;;;7.63;;
17079;SDS011;8655;57.106;-2.088;2022-11-15T12:13:46;13.77;;;7.00;;
17079;SDS011;8655;57.106;-2.088;2022-11-15T12:16:20;13.47;;;7.17;;
17079;SDS011;8655;57.106;-2.088;2022-11-15T12:18:52;16.03;;;7.20;;
17079;SDS011;8655;57.106;-2.088;2022-11-15T12:24:09;14.20;;;6.70;;
17079;SDS011;8655;57.106;-2.088;2022-11-15T12:26:38;13.30;;;6.53;;
17079;SDS011;8655;57.106;-2.088;2022-11-15T12:29:56;11.57;;;6.53;;
17079;SDS011;8655;57.106;-2.088;2022-11-15T12:31:59;10.73;;;6.33;;
17079;SDS011;8655;57.106;-2.088;2022-11-15T12:37:00;14.33;;;6.97;;
17079;SDS011;8655;57.106;-2.088;2022-11-15T12:44:56;13.60;;;6.37;;
17079;SDS011;8655;57.106;-2.088;2022-11-15T12:47:24;13.73;;;6.63;;
17079;SDS011;8655;57.106;-2.088;2022-11-15T12:49:51;9.80;;;5.37;;
17079;SDS011;8655;57.106;-2.088;2022-11-15T12:52:17;13.30;;;6.00;;
17079;SDS011;8655;57.106;-2.088;2022-11-15T12:54:50;11.60;;;5.40;;
17079;SDS011;8655;57.106;-2.088;2022-11-15T12:57:29;11.10;;;5.80;;
17079;SDS011;8655;57.106;-2.088;2022-11-15T13:15:38;16.80;;;6.17;;
17079;SDS011;8655;57.106;-2.088;2022-11-15T13:18:36;12.80;;;5.57;;
17079;SDS011;8655;57.106;-2.088;2022-11-15T13:21:04;11.07;;;5.33;;
17079;SDS011;8655;57.106;-2.088;2022-11-15T13:24:02;13.33;;;5.27;;
17079;SDS011;8655;57.106;-2.088;2022-11-15T13:26:28;13.40;;;5.47;;
17079;SDS011;8655;57.106;-2.088;2022-11-15T13:28:54;10.43;;;5.60;;
17079;SDS011;8655;57.106;-2.088;2022-11-15T13:37:01;11.17;;;5.13;;
17079;SDS011;8655;57.106;-2.088;2022-11-15T13:41:55;10.77;;;4.90;;
17079;SDS011;8655;57.106;-2.088;2022-11-15T13:44:23;16.03;;;5.93;;
17079;SDS011;8655;57.106;-2.088;2022-11-15T13:49:31;9.40;;;4.83;;
17079;SDS011;8655;57.106;-2.088;2022-11-15T13:51:58;10.77;;;4.73;;
17079;SDS011;8655;57.106;-2.088;2022-11-15T13:54:50;10.43;;;4.53;;
17079;SDS011;8655;57.106;-2.088;2022-11-15T13:59:46;10.73;;;4.40;;
17079;SDS011;8655;57.106;-2.088;2022-11-15T14:02:16;9.97;;;4.50;;
17079;SDS011;8655;57.106;-2.088;2022-11-15T14:04:54;11.20;;;4.78;;
17079;SDS011;8655;57.106;-2.088;2022-11-15T14:07:24;8.73;;;4.53;;
17079;SDS011;8655;57.106;-2.088;2022-11-15T14:09:52;9.20;;;4.13;;
17079;SDS011;8655;57.106;-2.088;2022-11-15T14:14:53;10.00;;;4.57;;
17079;SDS011;8655;57.106;-2.088;2022-11-15T14:17:33;10.67;;;4.47;;
17079;SDS011;8655;57.106;-2.088;2022-11-15T14:20:00;11.87;;;4.73;;
17079;SDS011;8655;57.106;-2.088;2022-11-15T14:22:28;11.70;;;4.70;;
17079;SDS011;8655;57.106;-2.088;2022-11-15T14:25:06;13.47;;;4.97;;
17079;SDS011;8655;57.106;-2.088;2022-11-15T14:27:40;12.20;;;5.23;;
17079;SDS011;8655;57.106;-2.088;2022-11-15T14:30:12;11.63;;;4.70;;
17079;SDS011;8655;57.106;-2.088;2022-11-15T14:32:48;12.03;;;4.97;;
17079;SDS011;8655;57.106;-2.088;2022-11-15T14:35:16;12.53;;;4.77;;
17079;SDS011;8655;57.106;-2.088;2022-11-15T14:37:44;12.07;;;4.97;;
17079;SDS011;8655;57.106;-2.088;2022-11-15T14:40:12;11.50;;;4.80;;
17079;SDS011;8655;57.106;-2.088;2022-11-15T14:42:40;11.23;;;4.73;;
17079;SDS011;8655;57.106;-2.088;2022-11-15T14:45:13;15.20;;;4.90;;
17079;SDS011;8655;57.106;-2.088;2022-11-15T14:47:43;13.50;;;4.80;;
17079;SDS011;8655;57.106;-2.088;2022-11-15T14:50:12;10.13;;;4.53;;
17079;SDS011;8655;57.106;-2.088;2022-11-15T14:52:39;11.40;;;4.63;;
17079;SDS011;8655;57.106;-2.088;2022-11-15T14:55:11;11.87;;;4.63;;
17079;SDS011;8655;57.106;-2.088;2022-11-15T14:57:43;11.10;;;4.70;;
17079;SDS011;8655;57.106;-2.088;2022-11-15T15:00:10;11.87;;;4.40;;
17079;SDS011;8655;57.106;-2.088;2022-11-15T15:02:37;9.77;;;4.50;;
17079;SDS011;8655;57.106;-2.088;2022-11-15T15:05:23;10.87;;;4.53;;
17079;SDS011;8655;57.106;-2.088;2022-11-15T15:08:00;12.70;;;4.90;;
17079;SDS011;8655;57.106;-2.088;2022-11-15T15:10:39;11.37;;;4.67;;
17079;SDS011;8655;57.106;-2.088;2022-11-15T15:13:13;10.32;;;4.80;;
17079;SDS011;8655;57.106;-2.088;2022-11-15T15:15:41;11.97;;;4.87;;
17079;SDS011;8655;57.106;-2.088;2022-11-15T15:18:07;13.03;;;4.53;;
17079;SDS011;8655;57.106;-2.088;2022-11-15T15:20:34;12.70;;;4.07;;
17079;SDS011;8655;57.106;-2.088;2022-11-15T15:23:02;15.07;;;4.93;;
17079;SDS011;8655;57.106;-2.088;2022-11-15T15:25:32;15.07;;;5.33;;
17079;SDS011;8655;57.106;-2.088;2022-11-15T15:27:59;13.80;;;4.73;;
17079;SDS011;8655;57.106;-2.088;2022-11-15T15:30:27;11.97;;;4.40;;
17079;SDS011;8655;57.106;-2.088;2022-11-15T15:32:55;12.90;;;4.70;;
17079;SDS011;8655;57.106;-2.088;2022-11-15T15:35:21;11.83;;;4.27;;
17079;SDS011;8655;57.106;-2.088;2022-11-15T15:37:47;12.17;;;4.67;;
17079;SDS011;8655;57.106;-2.088;2022-11-15T15:42:41;15.30;;;4.60;;
17079;SDS011;8655;57.106;-2.088;2022-11-15T15:45:07;18.07;;;5.23;;
17079;SDS011;8655;57.106;-2.088;2022-11-15T15:47:34;14.67;;;4.73;;
17079;SDS011;8655;57.106;-2.088;2022-11-15T15:50:00;12.33;;;4.50;;
17079;SDS011;8655;57.106;-2.088;2022-11-15T15:52:26;12.10;;;4.53;;
17079;SDS011;8655;57.106;-2.088;2022-11-15T15:54:51;12.27;;;4.53;;
17079;SDS011;8655;57.106;-2.088;2022-11-15T15:57:17;13.20;;;4.53;;
17079;SDS011;8655;57.106;-2.088;2022-11-15T15:59:43;14.90;;;4.73;;
17079;SDS011;8655;57.106;-2.088;2022-11-15T16:02:12;11.80;;;4.40;;
17079;SDS011;8655;57.106;-2.088;2022-11-15T16:04:38;11.50;;;4.27;;
17079;SDS011;8655;57.106;-2.088;2022-11-15T16:07:04;12.77;;;4.43;;
17079;SDS011;8655;57.106;-2.088;2022-11-15T16:09:30;12.90;;;4.70;;
17079;SDS011;8655;57.106;-2.088;2022-11-15T16:12:14;11.00;;;4.70;;
17079;SDS011;8655;57.106;-2.088;2022-11-15T16:14:41;14.07;;;4.53;;
17079;SDS011;8655;57.106;-2.088;2022-11-15T16:17:13;12.87;;;3.93;;
17079;SDS011;8655;57.106;-2.088;2022-11-15T16:19:46;11.00;;;4.23;;
17079;SDS011;8655;57.106;-2.088;2022-11-15T16:22:12;13.77;;;4.13;;
17079;SDS011;8655;57.106;-2.088;2022-11-15T16:24:38;12.53;;;4.40;;
17079;SDS011;8655;57.106;-2.088;2022-11-15T16:27:03;11.93;;;4.20;;
17079;SDS011;8655;57.106;-2.088;2022-11-15T16:29:29;12.37;;;4.50;;
17079;SDS011;8655;57.106;-2.088;2022-11-15T16:31:55;12.50;;;4.30;;
17079;SDS011;8655;57.106;-2.088;2022-11-15T16:34:21;14.10;;;4.43;;
17079;SDS011;8655;57.106;-2.088;2022-11-15T16:36:47;13.33;;;4.37;;